createdAt,value
2019-01-24T00:01:52.634Z,-2.40
2019-01-24T00:04:23.234Z,-2.44
2019-01-24T00:06:55.703Z,-2.45
2019-01-24T00:09:27.967Z,-2.42
2019-01-24T00:12:00.085Z,-2.44
2019-01-24T00:14:30.509Z,-2.47
2019-01-24T00:17:00.915Z,-2.48
2019-01-24T00:19:32.024Z,-2.49
2019-01-24T00:22:02.505Z,-2.49
2019-01-24T00:24:33.593Z,-2.48
2019-01-24T00:27:05.997Z,-2.49
2019-01-24T00:29:37.779Z,-2.49
2019-01-24T00:32:09.839Z,-2.50
2019-01-24T00:34:40.151Z,-2.50
2019-01-24T00:37:10.746Z,-2.56
2019-01-24T00:39:41.337Z,-2.56
2019-01-24T00:42:11.610Z,-2.53
2019-01-24T00:44:42.019Z,-2.53
2019-01-24T00:47:13.860Z,-2.52
2019-01-24T00:49:48.414Z,-2.52
2019-01-24T00:52:17.698Z,-2.51
2019-01-24T00:54:48.071Z,-2.54
2019-01-24T00:57:19.861Z,-2.54
2019-01-24T00:59:50.193Z,-2.57
2019-01-24T01:02:20.827Z,-2.56
2019-01-24T01:04:51.323Z,-2.56
2019-01-24T01:07:21.617Z,-2.55
2019-01-24T01:09:51.934Z,-2.55
2019-01-24T01:12:24.132Z,-2.54
2019-01-24T01:14:54.503Z,-2.53
2019-01-24T01:17:26.280Z,-2.54
2019-01-24T01:19:56.591Z,-2.56
2019-01-24T01:22:27.485Z,-2.55
2019-01-24T01:24:57.878Z,-2.56
2019-01-24T01:27:29.718Z,-2.55
2019-01-24T01:30:00.335Z,-2.55
2019-01-24T01:32:31.626Z,-2.56
2019-01-24T01:35:06.413Z,-2.59
2019-01-24T01:37:37.781Z,-2.59
2019-01-24T01:40:09.916Z,-2.60
2019-01-24T01:42:48.128Z,-2.59
2019-01-24T01:45:20.653Z,-2.60
2019-01-24T01:47:52.988Z,-2.62
2019-01-24T01:50:25.310Z,-2.64
2019-01-24T01:52:56.209Z,-2.66
2019-01-24T01:55:26.557Z,-2.69
2019-01-24T01:57:57.974Z,-2.71
2019-01-24T02:00:28.544Z,-2.72
2019-01-24T02:02:59.182Z,-2.71
2019-01-24T02:05:29.940Z,-2.72
2019-01-24T02:08:00.294Z,-2.72
2019-01-24T02:10:32.047Z,-2.70
2019-01-24T02:13:02.358Z,-2.70
2019-01-24T02:15:32.945Z,-2.73
2019-01-24T02:18:03.480Z,-2.75
2019-01-24T02:20:33.810Z,-2.75
2019-01-24T02:23:04.597Z,-2.75
2019-01-24T02:25:36.884Z,-2.77
2019-01-24T02:28:08.449Z,-2.79
2019-01-24T02:30:40.389Z,-2.77
2019-01-24T02:33:10.690Z,-2.76
2019-01-24T02:35:49.505Z,-2.76
2019-01-24T02:38:16.990Z,-2.79
2019-01-24T02:40:48.277Z,-2.84
2019-01-24T02:43:20.377Z,-2.85
2019-01-24T02:45:50.739Z,-2.86
2019-01-24T02:48:21.213Z,-2.85
2019-01-24T02:50:54.299Z,-2.86
2019-01-24T02:53:24.583Z,-2.85
2019-01-24T02:55:57.399Z,-2.78
2019-01-24T02:58:29.476Z,-2.74
2019-01-24T03:01:01.409Z,-2.74
2019-01-24T03:03:32.868Z,-2.81
2019-01-24T03:06:04.903Z,-2.81
2019-01-24T03:08:35.239Z,-2.85
2019-01-24T03:11:07.006Z,-2.85
2019-01-24T03:13:37.487Z,-2.86
2019-01-24T03:16:09.198Z,-2.88
2019-01-24T03:18:39.546Z,-2.91
2019-01-24T03:21:10.381Z,-2.93
2019-01-24T03:23:40.663Z,-2.96
2019-01-24T03:26:11.056Z,-2.96
2019-01-24T03:28:41.678Z,-2.97
2019-01-24T03:31:15.729Z,-2.98
2019-01-24T03:33:46.434Z,-3.04
2019-01-24T03:36:16.807Z,-3.03
2019-01-24T03:38:50.288Z,-3.03
2019-01-24T03:41:20.821Z,-3.00
2019-01-24T03:43:51.446Z,-2.99
2019-01-24T03:46:21.812Z,-3.02
2019-01-24T03:48:52.632Z,-3.04
2019-01-24T03:51:23.181Z,-3.08
2019-01-24T03:53:55.551Z,-3.08
2019-01-24T03:56:26.178Z,-3.08
2019-01-24T03:58:56.656Z,-3.08
2019-01-24T04:01:28.684Z,-3.08
2019-01-24T04:03:59.261Z,-3.10
2019-01-24T04:06:29.575Z,-3.10
2019-01-24T04:09:01.792Z,-3.13
2019-01-24T04:11:32.081Z,-3.12
2019-01-24T04:14:04.795Z,-3.14
2019-01-24T04:16:37.074Z,-3.18
2019-01-24T04:19:07.580Z,-3.18
2019-01-24T04:21:37.916Z,-3.19
2019-01-24T04:24:08.533Z,-3.21
2019-01-24T04:26:42.437Z,-3.23
2019-01-24T04:29:16.156Z,-3.20
2019-01-24T04:31:46.602Z,-3.20
2019-01-24T04:34:18.462Z,-3.19
2019-01-24T04:36:49.004Z,-3.21
2019-01-24T04:39:19.668Z,-3.20
2019-01-24T04:41:50.345Z,-3.19
2019-01-24T04:44:22.128Z,-3.18
2019-01-24T04:46:52.570Z,-3.18
2019-01-24T04:49:22.930Z,-3.20
2019-01-24T04:51:53.507Z,-3.23
2019-01-24T04:54:24.121Z,-3.22
2019-01-24T04:56:54.739Z,-3.19
2019-01-24T04:59:25.236Z,-3.17
2019-01-24T05:01:55.898Z,-3.15
2019-01-24T05:04:27.257Z,-3.14
2019-01-24T05:06:57.588Z,-3.15
2019-01-24T05:09:28.274Z,-3.14
2019-01-24T05:12:00.453Z,-3.13
2019-01-24T05:14:30.715Z,-3.15
2019-01-24T05:17:03.871Z,-3.15
2019-01-24T05:19:34.372Z,-3.16
2019-01-24T05:22:05.646Z,-3.15
2019-01-24T05:24:37.377Z,-3.14
2019-01-24T05:27:07.633Z,-3.09
2019-01-24T05:29:38.100Z,-3.10
2019-01-24T05:32:08.654Z,-3.10
2019-01-24T05:34:39.080Z,-3.12
2019-01-24T05:37:11.772Z,-3.15
2019-01-24T05:39:42.197Z,-3.16
2019-01-24T05:42:12.572Z,-3.15
2019-01-24T05:44:49.591Z,-3.15
2019-01-24T05:47:20.225Z,-3.15
2019-01-24T05:49:51.621Z,-3.17
2019-01-24T05:52:21.927Z,-3.15
2019-01-24T05:54:52.605Z,-3.15
2019-01-24T05:57:23.266Z,-3.17
2019-01-24T05:59:53.564Z,-3.21
2019-01-24T06:02:24.260Z,-3.21
2019-01-24T06:04:54.905Z,-3.24
2019-01-24T06:07:25.946Z,-3.24
2019-01-24T06:09:58.698Z,-3.21
2019-01-24T06:12:29.023Z,-3.19
2019-01-24T06:14:59.295Z,-3.20
2019-01-24T06:17:31.672Z,-3.20
2019-01-24T06:20:05.231Z,-3.19
2019-01-24T06:22:35.569Z,-3.20
2019-01-24T06:25:07.745Z,-3.20
2019-01-24T06:27:38.224Z,-3.24
2019-01-24T06:30:13.288Z,-3.26
2019-01-24T06:32:43.772Z,-3.24
2019-01-24T06:35:14.455Z,-3.20
2019-01-24T06:37:46.495Z,-3.20
2019-01-24T06:40:17.329Z,-3.23
2019-01-24T06:42:47.652Z,-3.20
2019-01-24T06:45:23.213Z,-3.22
2019-01-24T06:47:53.722Z,-3.22
2019-01-24T06:50:24.281Z,-3.23
2019-01-24T06:52:54.697Z,-3.22
2019-01-24T06:55:27.484Z,-3.26
2019-01-24T06:58:00.585Z,-3.26
2019-01-24T07:00:33.155Z,-3.27
2019-01-24T07:03:04.852Z,-3.27
2019-01-24T07:05:35.524Z,-3.30
2019-01-24T07:08:05.882Z,-3.31
2019-01-24T07:10:37.939Z,-3.29
2019-01-24T07:13:08.427Z,-3.27
2019-01-24T07:15:38.876Z,-3.27
2019-01-24T07:18:09.261Z,-3.27
2019-01-24T07:20:39.645Z,-3.27
2019-01-24T07:23:10.326Z,-3.26
2019-01-24T07:25:40.687Z,-3.33
2019-01-24T07:28:13.009Z,-3.34
2019-01-24T07:30:43.437Z,-3.31
2019-01-24T07:33:14.124Z,-3.34
2019-01-24T07:35:44.598Z,-3.36
2019-01-24T07:38:15.307Z,-3.35
2019-01-24T07:40:48.754Z,-3.32
2019-01-24T07:43:19.365Z,-3.31
2019-01-24T07:45:49.835Z,-3.32
2019-01-24T07:48:23.390Z,-3.35
2019-01-24T07:50:55.666Z,-3.35
2019-01-24T07:53:27.353Z,-3.29
2019-01-24T07:56:06.646Z,-3.27
2019-01-24T07:58:37.148Z,-3.24
2019-01-24T08:01:09.231Z,-3.21
2019-01-24T08:03:40.850Z,-3.21
2019-01-24T08:06:12.744Z,-3.16
2019-01-24T08:08:46.104Z,-3.17
2019-01-24T08:11:16.434Z,-3.17
2019-01-24T08:13:47.001Z,-3.12
2019-01-24T08:16:20.224Z,-3.12
2019-01-24T08:18:51.473Z,-3.15
2019-01-24T08:21:21.805Z,-3.15
2019-01-24T08:23:54.865Z,-3.11
2019-01-24T08:26:26.851Z,-3.11
2019-01-24T08:28:57.975Z,-3.13
2019-01-24T08:31:28.684Z,-3.11
2019-01-24T08:34:00.735Z,-3.06
2019-01-24T08:36:31.283Z,-2.97
2019-01-24T08:39:01.896Z,-2.88
2019-01-24T08:41:33.487Z,-2.84
2019-01-24T08:44:06.067Z,-2.81
2019-01-24T08:46:36.761Z,-2.80
2019-01-24T08:49:07.733Z,-2.82
2019-01-24T08:51:38.051Z,-2.84
2019-01-24T08:54:10.029Z,-2.85
2019-01-24T08:56:40.446Z,-2.87
2019-01-24T08:59:10.832Z,-2.88
2019-01-24T09:01:47.554Z,-2.83
2019-01-24T09:04:15.325Z,-2.81
2019-01-24T09:06:48.032Z,-2.81
2019-01-24T09:09:18.403Z,-2.78
2019-01-24T09:11:49.038Z,-2.76
2019-01-24T09:14:19.509Z,-2.71
2019-01-24T09:16:50.168Z,-2.63
2019-01-24T09:19:38.786Z,-2.53
2019-01-24T09:21:54.767Z,-2.55
2019-01-24T09:24:26.794Z,-2.55
2019-01-24T09:26:57.778Z,-2.55
2019-01-24T09:29:29.635Z,-2.58
2019-01-24T09:32:00.113Z,-2.56
2019-01-24T09:34:30.449Z,-2.48
2019-01-24T09:37:01.063Z,-2.32
2019-01-24T09:39:31.428Z,-2.32
2019-01-24T09:42:02.021Z,-2.22
2019-01-24T09:44:32.380Z,-2.16
2019-01-24T09:47:04.476Z,-2.13
2019-01-24T09:49:34.829Z,-2.07
2019-01-24T09:52:12.514Z,-2.04
2019-01-24T09:54:42.971Z,-1.98
2019-01-24T09:57:16.567Z,-1.92
2019-01-24T09:59:46.997Z,-1.85
2019-01-24T10:02:18.616Z,-1.76
2019-01-24T10:04:49.226Z,-1.66
2019-01-24T10:07:21.061Z,-1.59
2019-01-24T10:09:55.907Z,-1.52
2019-01-24T10:12:26.637Z,-1.44
2019-01-24T10:14:57.284Z,-1.35
2019-01-24T10:17:27.792Z,-1.36
2019-01-24T10:19:58.294Z,-1.46
2019-01-24T10:22:31.321Z,-1.59
2019-01-24T10:25:01.741Z,-1.58
2019-01-24T10:27:32.073Z,-1.52
2019-01-24T10:30:03.582Z,-1.55
2019-01-24T10:32:34.147Z,-1.47
2019-01-24T10:35:10.510Z,-1.38
2019-01-24T10:37:40.767Z,-1.30
2019-01-24T10:40:17.616Z,-1.28
2019-01-24T10:42:54.427Z,-1.25
2019-01-24T10:45:24.829Z,-1.23
2019-01-24T10:47:57.308Z,-1.19
2019-01-24T10:50:27.977Z,-1.21
2019-01-24T10:53:00.454Z,-1.25
2019-01-24T10:55:35.823Z,-1.32
2019-01-24T10:58:15.368Z,-1.43
2019-01-24T11:01:09.084Z,-1.50
2019-01-24T11:03:28.629Z,-1.51
2019-01-24T11:06:11.721Z,-1.46
2019-01-24T11:08:56.205Z,-1.40
2019-01-24T11:11:35.345Z,-1.34
2019-01-24T11:14:26.135Z,-1.30
2019-01-24T11:17:25.004Z,-1.24
2019-01-24T11:20:05.203Z,-1.22
2019-01-24T11:22:46.914Z,-1.12
2019-01-24T11:25:28.599Z,-0.95
2019-01-24T11:28:14.821Z,-0.82
2019-01-24T11:31:17.096Z,-0.68
2019-01-24T11:34:19.283Z,-0.64
2019-01-24T11:37:22.570Z,-0.65
2019-01-24T11:40:09.310Z,-0.56
2019-01-24T11:42:39.974Z,-0.62
2019-01-24T11:45:22.790Z,-0.54
2019-01-24T11:47:56.042Z,-0.41
2019-01-24T11:50:38.320Z,-0.29
2019-01-24T11:53:11.674Z,-0.10
2019-01-24T11:55:53.168Z,0.18
2019-01-24T11:59:08.230Z,0.32
2019-01-24T12:02:20.211Z,0.31
2019-01-24T12:05:14.887Z,0.30
2019-01-24T12:07:54.835Z,0.12
2019-01-24T12:10:38.209Z,-0.27
2019-01-24T12:13:24.987Z,-0.35
2019-01-24T12:16:04.610Z,-0.44
2019-01-24T12:18:40.549Z,-0.49
2019-01-24T12:21:18.482Z,-0.87
2019-01-24T12:24:09.287Z,-0.87
2019-01-24T12:27:00.277Z,-1.06
2019-01-24T12:29:48.896Z,-1.29
2019-01-24T12:32:21.144Z,-1.27
2019-01-24T12:34:51.569Z,-1.21
2019-01-24T12:37:22.205Z,-1.21
2019-01-24T12:39:52.851Z,-1.05
2019-01-24T12:42:23.439Z,-0.91
2019-01-24T12:44:53.928Z,-0.78
2019-01-24T12:47:24.268Z,-0.79
2019-01-24T12:49:58.955Z,-0.78
2019-01-24T12:52:28.328Z,-0.80
2019-01-24T12:55:06.990Z,-0.82
2019-01-24T12:57:37.410Z,-0.87
2019-01-24T13:00:14.145Z,-1.01
2019-01-24T13:02:47.265Z,-1.05
2019-01-24T13:05:17.948Z,-1.04
2019-01-24T13:07:49.852Z,-1.13
2019-01-24T13:10:22.488Z,-1.18
2019-01-24T13:12:53.076Z,-1.19
2019-01-24T13:15:26.315Z,-1.14
2019-01-24T13:17:56.646Z,-1.16
2019-01-24T13:20:27.580Z,-1.16
2019-01-24T13:22:57.951Z,-1.16
2019-01-24T13:25:34.561Z,-1.15
2019-01-24T13:28:05.619Z,-1.18
2019-01-24T13:30:37.346Z,-1.15
2019-01-24T13:33:08.339Z,-1.15
2019-01-24T13:35:40.215Z,-1.18
2019-01-24T13:40:48.097Z,-1.23
2019-01-24T13:43:23.484Z,-1.26
2019-01-24T13:45:53.831Z,-1.29
2019-01-24T13:48:24.195Z,-1.36
2019-01-24T13:51:01.338Z,-1.41
2019-01-24T13:53:32.261Z,-1.40
2019-01-24T13:56:02.679Z,-1.38
2019-01-24T13:58:33.250Z,-1.41
2019-01-24T14:01:03.658Z,-1.39
2019-01-24T14:03:56.471Z,-1.34
2019-01-24T14:06:26.966Z,-1.28
2019-01-24T14:08:57.514Z,-1.31
2019-01-24T14:11:27.823Z,-1.31
2019-01-24T14:13:58.500Z,-1.26
2019-01-24T14:16:28.846Z,-1.29
2019-01-24T14:19:03.363Z,-1.33
2019-01-24T14:21:33.744Z,-1.33
2019-01-24T14:24:05.271Z,-1.36
2019-01-24T14:26:36.004Z,-1.34
2019-01-24T14:29:06.446Z,-1.40
2019-01-24T14:31:36.924Z,-1.49
2019-01-24T14:34:10.616Z,-1.52
2019-01-24T14:36:42.643Z,-1.51
2019-01-24T14:39:21.870Z,-1.56
2019-01-24T14:41:52.338Z,-1.64
2019-01-24T14:44:28.243Z,-1.65
2019-01-24T14:46:59.707Z,-1.66
2019-01-24T14:49:39.011Z,-1.70
2019-01-24T14:52:09.394Z,-1.76
2019-01-24T14:54:41.401Z,-1.79
2019-01-24T14:57:12.151Z,-1.80
2019-01-24T14:59:43.140Z,-1.85
2019-01-24T15:02:13.676Z,-1.90
2019-01-24T15:04:44.313Z,-1.95
2019-01-24T15:07:16.049Z,-2.02
2019-01-24T15:09:47.667Z,-2.06
2019-01-24T15:12:18.497Z,-2.03
2019-01-24T15:14:49.673Z,-2.03
2019-01-24T15:17:20.398Z,-2.06
2019-01-24T15:19:50.959Z,-2.11
2019-01-24T15:22:21.595Z,-2.16
2019-01-24T15:24:54.647Z,-2.19
2019-01-24T15:27:25.251Z,-2.21
2019-01-24T15:29:55.678Z,-2.25
2019-01-24T15:32:26.138Z,-2.28
2019-01-24T15:34:58.220Z,-2.31
2019-01-24T15:37:28.829Z,-2.33
2019-01-24T15:39:59.204Z,-2.37
2019-01-24T15:42:31.351Z,-2.42
2019-01-24T15:45:01.689Z,-2.45
2019-01-24T15:47:33.119Z,-2.49
2019-01-24T15:50:07.493Z,-2.56
2019-01-24T15:52:38.303Z,-2.63
2019-01-24T15:55:09.538Z,-2.63
2019-01-24T15:57:40.513Z,-2.70
2019-01-24T16:00:25.050Z,-2.70
2019-01-24T16:02:55.860Z,-2.69
2019-01-24T16:05:26.899Z,-2.76
2019-01-24T16:08:01.665Z,-2.80
2019-01-24T16:10:31.039Z,-2.82
2019-01-24T16:13:01.417Z,-2.84
2019-01-24T16:15:34.553Z,-2.88
2019-01-24T16:18:08.263Z,-2.93
2019-01-24T16:20:39.033Z,-2.94
2019-01-24T16:23:09.765Z,-2.96
2019-01-24T16:25:41.181Z,-2.97
2019-01-24T16:28:14.772Z,-3.01
2019-01-24T16:30:45.127Z,-3.01
2019-01-24T16:33:15.770Z,-3.02
2019-01-24T16:35:46.469Z,-3.01
2019-01-24T16:38:16.839Z,-3.04
2019-01-24T16:40:47.172Z,-3.06
2019-01-24T16:43:19.076Z,-3.08
2019-01-24T16:45:49.541Z,-3.08
2019-01-24T16:48:20.139Z,-3.07
2019-01-24T16:50:50.551Z,-3.06
2019-01-24T16:53:21.141Z,-3.08
2019-01-24T16:55:51.907Z,-3.11
2019-01-24T16:58:32.829Z,-3.15
2019-01-24T17:01:13.935Z,-3.15
2019-01-24T17:03:44.536Z,-3.14
2019-01-24T17:06:17.101Z,-3.16
2019-01-24T17:08:49.896Z,-3.19
2019-01-24T17:11:21.440Z,-3.24
2019-01-24T17:13:52.137Z,-3.27
2019-01-24T17:16:22.503Z,-3.30
2019-01-24T17:18:54.425Z,-3.30
2019-01-24T17:21:28.250Z,-3.32
2019-01-24T17:23:58.925Z,-3.41
2019-01-24T17:26:29.331Z,-3.41
2019-01-24T17:29:00.073Z,-3.35
2019-01-24T17:31:30.663Z,-3.31
2019-01-24T17:34:01.473Z,-3.28
2019-01-24T17:36:31.767Z,-3.22
2019-01-24T17:39:02.586Z,-3.20
2019-01-24T17:41:34.273Z,-3.19
2019-01-24T17:44:04.982Z,-3.16
2019-01-24T17:46:36.431Z,-3.15
2019-01-24T17:49:07.920Z,-3.11
2019-01-24T17:51:38.279Z,-3.09
2019-01-24T17:54:09.453Z,-3.06
2019-01-24T17:56:39.961Z,-3.05
2019-01-24T17:59:10.574Z,-3.06
2019-01-24T18:01:43.776Z,-3.07
2019-01-24T18:04:21.472Z,-3.07
2019-01-24T18:06:47.179Z,-3.08
2019-01-24T18:09:18.547Z,-3.07
2019-01-24T18:11:50.602Z,-3.06
2019-01-24T18:14:20.919Z,-3.05
2019-01-24T18:16:52.577Z,-3.04
2019-01-24T18:19:28.167Z,-3.02
2019-01-24T18:21:56.964Z,-3.02
2019-01-24T18:24:29.194Z,-3.01
2019-01-24T18:26:59.794Z,-3.02
2019-01-24T18:29:30.901Z,-3.02
2019-01-24T18:32:01.304Z,-2.99
2019-01-24T18:34:31.824Z,-3.01
2019-01-24T18:37:02.528Z,-2.99
2019-01-24T18:39:34.755Z,-3.01
2019-01-24T18:42:06.496Z,-2.99
2019-01-24T18:44:36.819Z,-2.96
2019-01-24T18:47:07.281Z,-2.95
2019-01-24T18:49:38.017Z,-2.94
2019-01-24T18:52:09.184Z,-2.96
2019-01-24T18:54:39.532Z,-2.99
2019-01-24T18:57:10.363Z,-2.97
2019-01-24T18:59:41.813Z,-2.96
2019-01-24T19:02:14.772Z,-2.98
2019-01-24T19:04:45.269Z,-2.96
2019-01-24T19:07:15.976Z,-2.98
2019-01-24T19:09:47.602Z,-2.98
2019-01-24T19:12:22.548Z,-2.99
2019-01-24T19:15:07.694Z,-2.99
2019-01-24T19:17:38.059Z,-2.97
2019-01-24T19:20:10.084Z,-2.97
2019-01-24T19:22:42.514Z,-2.94
2019-01-24T19:25:13.351Z,-2.95
2019-01-24T19:27:48.168Z,-2.94
2019-01-24T19:30:23.820Z,-2.94
2019-01-24T19:32:56.686Z,-2.98
2019-01-24T19:35:28.853Z,-2.99
2019-01-24T19:37:59.481Z,-2.99
2019-01-24T19:40:30.311Z,-3.00
2019-01-24T19:43:02.038Z,-3.02
2019-01-24T19:45:32.418Z,-3.01
2019-01-24T19:48:03.105Z,-2.99
2019-01-24T19:50:33.752Z,-3.00
2019-01-24T19:53:06.830Z,-2.99
2019-01-24T19:55:37.975Z,-2.96
2019-01-24T19:58:09.229Z,-2.96
2019-01-24T20:00:39.884Z,-2.96
2019-01-24T20:03:11.686Z,-2.96
2019-01-24T20:05:42.685Z,-2.97
2019-01-24T20:08:13.237Z,-2.96
2019-01-24T20:10:44.443Z,-2.93
2019-01-24T20:13:14.833Z,-2.94
2019-01-24T20:15:46.872Z,-2.95
2019-01-24T20:18:17.810Z,-2.94
2019-01-24T20:20:48.449Z,-2.93
2019-01-24T20:23:19.127Z,-2.94
2019-01-24T20:25:49.580Z,-2.95
2019-01-24T20:28:19.977Z,-2.95
2019-01-24T20:30:50.658Z,-2.95
2019-01-24T20:33:21.005Z,-2.94
2019-01-24T20:36:00.889Z,-2.96
2019-01-24T20:38:31.691Z,-2.94
2019-01-24T20:41:02.195Z,-2.96
2019-01-24T20:43:35.448Z,-2.95
2019-01-24T20:46:09.190Z,-2.94
2019-01-24T20:48:39.711Z,-2.95
2019-01-24T20:51:10.249Z,-2.93
2019-01-24T20:53:42.476Z,-2.91
2019-01-24T20:56:13.208Z,-2.88
2019-01-24T20:58:46.159Z,-2.86
2019-01-24T21:01:16.733Z,-2.83
2019-01-24T21:03:55.252Z,-2.83
2019-01-24T21:06:23.067Z,-2.81
2019-01-24T21:08:55.562Z,-2.83
2019-01-24T21:11:26.036Z,-2.85
2019-01-24T21:13:57.378Z,-2.83
2019-01-24T21:16:28.132Z,-2.82
2019-01-24T21:19:01.595Z,-2.85
2019-01-24T21:21:33.804Z,-2.85
2019-01-24T21:24:05.949Z,-2.86
2019-01-24T21:26:36.662Z,-2.87
2019-01-24T21:29:08.296Z,-2.88
2019-01-24T21:31:42.944Z,-2.89
2019-01-24T21:34:13.408Z,-2.88
2019-01-24T21:36:44.159Z,-2.85
2019-01-24T21:41:53.442Z,-2.85
2019-01-24T21:44:25.911Z,-2.85
2019-01-24T21:46:58.757Z,-2.84
2019-01-24T21:49:31.065Z,-2.82
2019-01-24T21:52:01.902Z,-2.84
2019-01-24T21:54:32.386Z,-2.84
2019-01-24T21:57:02.756Z,-2.79
2019-01-24T21:59:33.467Z,-2.77
2019-01-24T22:02:03.912Z,-2.76
2019-01-24T22:04:45.207Z,-2.77
2019-01-24T22:07:22.080Z,-2.77
2019-01-24T22:09:52.407Z,-2.77
2019-01-24T22:12:26.284Z,-2.76
2019-01-24T22:14:57.060Z,-2.77
2019-01-24T22:17:29.977Z,-2.76
2019-01-24T22:20:00.505Z,-2.75
2019-01-24T22:22:31.401Z,-2.75
2019-01-24T22:25:06.779Z,-2.76
2019-01-24T22:27:37.544Z,-2.77
2019-01-24T22:30:11.222Z,-2.75
2019-01-24T22:32:56.775Z,-2.75
2019-01-24T22:35:25.675Z,-2.77
2019-01-24T22:37:57.317Z,-2.76
2019-01-24T22:40:30.423Z,-2.74
2019-01-24T22:43:02.688Z,-2.74
2019-01-24T22:45:33.023Z,-2.73
2019-01-24T22:48:06.403Z,-2.68
2019-01-24T22:50:39.599Z,-2.68
2019-01-24T22:53:09.937Z,-2.70
2019-01-24T22:55:40.344Z,-2.69
2019-01-24T22:58:11.032Z,-2.66
2019-01-24T23:01:14.655Z,-2.66
2019-01-24T23:03:49.431Z,-2.67
2019-01-24T23:06:19.944Z,-2.65
2019-01-24T23:08:50.423Z,-2.63
2019-01-24T23:11:24.187Z,-2.63
2019-01-24T23:13:54.673Z,-2.62
2019-01-24T23:16:24.983Z,-2.62
2019-01-24T23:18:57.153Z,-2.62
2019-01-24T23:21:27.881Z,-2.63
2019-01-24T23:23:58.582Z,-2.67
2019-01-24T23:26:40.922Z,-2.66
2019-01-24T23:29:11.379Z,-2.66
2019-01-24T23:31:42.097Z,-2.66
2019-01-24T23:34:13.599Z,-2.68
2019-01-24T23:36:44.209Z,-2.71
2019-01-24T23:39:14.651Z,-2.74
2019-01-24T23:41:45.288Z,-2.72
2019-01-24T23:44:15.593Z,-2.68
2019-01-24T23:46:47.594Z,-2.67
2019-01-24T23:49:18.083Z,-2.68
2019-01-24T23:51:49.488Z,-2.69
2019-01-24T23:54:20.019Z,-2.70
2019-01-24T23:56:51.388Z,-2.69
2019-01-24T23:59:21.661Z,-2.67
